createdAt,value
2023-01-10T00:00:42.946Z,0.55
2023-01-10T00:03:09.523Z,0.50
2023-01-10T00:05:36.010Z,0.43
2023-01-10T00:08:02.472Z,0.60
2023-01-10T00:10:28.915Z,0.65
2023-01-10T00:12:55.412Z,0.30
2023-01-10T00:15:21.890Z,0.55
2023-01-10T00:17:48.363Z,0.35
2023-01-10T00:20:14.838Z,0.47
2023-01-10T00:22:41.324Z,0.52
2023-01-10T00:25:09.042Z,0.50
2023-01-10T00:27:35.504Z,0.20
2023-01-10T00:30:02.026Z,0.50
2023-01-10T00:32:28.460Z,0.60
2023-01-10T00:34:54.940Z,0.60
2023-01-10T00:37:21.463Z,0.50
2023-01-10T00:39:47.910Z,0.45
2023-01-10T00:42:14.422Z,0.40
2023-01-10T00:44:40.898Z,0.30
2023-01-10T00:47:07.378Z,0.47
2023-01-10T00:49:33.818Z,0.55
2023-01-10T00:52:00.370Z,0.30
2023-01-10T00:54:27.301Z,0.50
2023-01-10T00:56:53.746Z,0.28
2023-01-10T00:59:20.245Z,0.43
2023-01-10T01:01:46.766Z,0.40
2023-01-10T01:04:13.325Z,0.47
2023-01-10T01:06:39.804Z,0.30
2023-01-10T01:09:06.315Z,0.40
2023-01-10T01:11:32.754Z,0.40
2023-01-10T01:13:59.272Z,0.30
2023-01-10T01:16:25.772Z,0.40
2023-01-10T01:18:52.324Z,0.40
2023-01-10T01:21:18.776Z,0.30
2023-01-10T01:23:45.229Z,0.60
2023-01-10T01:26:11.725Z,0.30
2023-01-10T01:28:38.180Z,0.50
2023-01-10T01:31:04.692Z,0.35
2023-01-10T01:33:31.157Z,0.50
2023-01-10T01:35:57.649Z,0.40
2023-01-10T01:38:24.165Z,0.52
2023-01-10T01:40:50.716Z,0.55
2023-01-10T01:43:17.237Z,0.47
2023-01-10T01:45:43.814Z,0.30
2023-01-10T01:48:10.318Z,0.40
2023-01-10T01:50:36.804Z,0.40
2023-01-10T01:53:03.818Z,0.35
2023-01-10T01:55:30.344Z,0.50
2023-01-10T01:57:57.359Z,0.40
2023-01-10T02:00:23.853Z,0.30
2023-01-10T02:03:01.813Z,0.45
2023-01-10T02:05:28.927Z,0.50
2023-01-10T02:07:55.545Z,0.32
2023-01-10T02:10:21.998Z,0.20
2023-01-10T02:12:48.506Z,0.30
2023-01-10T02:15:14.986Z,0.35
2023-01-10T02:17:41.479Z,0.30
2023-01-10T02:20:07.955Z,0.30
2023-01-10T02:22:34.443Z,0.40
2023-01-10T02:25:00.886Z,0.22
2023-01-10T02:27:27.372Z,0.43
2023-01-10T02:29:53.871Z,0.22
2023-01-10T02:32:35.614Z,0.17
2023-01-10T02:35:06.830Z,0.43
2023-01-10T02:37:33.269Z,0.22
2023-01-10T02:39:59.713Z,0.30
2023-01-10T02:42:26.210Z,0.13
2023-01-10T02:44:52.651Z,0.20
2023-01-10T02:47:19.132Z,0.20
2023-01-10T02:49:45.588Z,0.20
2023-01-10T02:52:12.118Z,0.10
2023-01-10T02:54:38.619Z,0.30
2023-01-10T02:57:05.061Z,0.40
2023-01-10T02:59:31.540Z,0.45
2023-01-10T03:01:58.082Z,0.38
2023-01-10T03:04:24.599Z,0.10
2023-01-10T03:06:51.041Z,0.40
2023-01-10T03:09:17.544Z,0.20
2023-01-10T03:11:43.993Z,0.15
2023-01-10T03:14:11.033Z,0.32
2023-01-10T03:16:37.517Z,0.30
2023-01-10T03:19:03.973Z,0.10
2023-01-10T03:21:30.422Z,0.30
2023-01-10T03:23:56.890Z,0.20
2023-01-10T03:26:23.354Z,0.40
2023-01-10T03:28:50.335Z,0.35
2023-01-10T03:31:16.888Z,0.20
2023-01-10T03:33:43.362Z,0.20
2023-01-10T03:36:09.831Z,0.10
2023-01-10T03:38:36.358Z,0.30
2023-01-10T03:41:02.815Z,0.30
2023-01-10T03:43:29.314Z,0.30
2023-01-10T03:45:55.821Z,0.22
2023-01-10T03:48:22.272Z,0.38
2023-01-10T03:50:48.716Z,0.30
2023-01-10T03:53:15.193Z,0.20
2023-01-10T03:55:41.682Z,0.25
2023-01-10T03:58:08.188Z,0.30
2023-01-10T04:00:34.673Z,0.25
2023-01-10T04:03:01.215Z,0.43
2023-01-10T04:05:27.684Z,0.30
2023-01-10T04:07:54.188Z,0.20
2023-01-10T04:10:20.659Z,0.30
2023-01-10T04:12:47.154Z,0.20
2023-01-10T04:15:13.609Z,0.22
2023-01-10T04:17:40.046Z,0.25
2023-01-10T04:20:06.547Z,0.15
2023-01-10T04:22:33.564Z,0.15
2023-01-10T04:25:00.051Z,0.20
2023-01-10T04:27:26.511Z,0.30
2023-01-10T04:29:52.995Z,0.28
2023-01-10T04:32:19.489Z,0.20
2023-01-10T04:34:45.982Z,0.30
2023-01-10T04:37:12.497Z,0.10
2023-01-10T04:39:38.985Z,0.30
2023-01-10T04:42:05.438Z,0.20
2023-01-10T04:44:31.922Z,0.20
2023-01-10T04:46:58.454Z,0.35
2023-01-10T04:49:24.891Z,0.10
2023-01-10T04:51:51.376Z,0.30
2023-01-10T04:54:17.872Z,0.13
2023-01-10T04:56:44.361Z,0.40
2023-01-10T04:59:11.353Z,0.22
2023-01-10T05:01:37.899Z,0.30
2023-01-10T05:04:04.508Z,0.30
2023-01-10T05:06:30.957Z,0.20
2023-01-10T05:08:57.407Z,0.30
2023-01-10T05:11:23.861Z,0.20
2023-01-10T05:13:50.402Z,0.20
2023-01-10T05:16:16.934Z,0.10
2023-01-10T05:18:43.440Z,0.30
2023-01-10T05:21:09.952Z,0.30
2023-01-10T05:23:36.390Z,0.20
2023-01-10T05:26:02.860Z,0.40
2023-01-10T05:28:29.357Z,0.38
2023-01-10T05:30:56.292Z,0.38
2023-01-10T05:33:22.750Z,0.20
2023-01-10T05:35:49.257Z,0.30
2023-01-10T05:38:15.768Z,0.38
2023-01-10T05:40:42.266Z,0.38
2023-01-10T05:43:08.734Z,0.30
2023-01-10T05:45:35.256Z,0.25
2023-01-10T05:48:01.765Z,0.40
2023-01-10T05:50:28.217Z,0.40
2023-01-10T05:52:54.707Z,0.40
2023-01-10T05:55:21.173Z,0.40
2023-01-10T05:57:47.626Z,0.57
2023-01-10T06:00:14.120Z,0.65
2023-01-10T06:02:40.740Z,0.55
2023-01-10T06:05:07.302Z,0.70
2023-01-10T06:07:33.795Z,0.70
2023-01-10T06:10:00.248Z,0.80
2023-01-10T06:12:26.736Z,0.70
2023-01-10T06:14:53.230Z,0.60
2023-01-10T06:17:19.670Z,0.70
2023-01-10T06:19:46.169Z,1.30
2023-01-10T06:22:12.659Z,0.65
2023-01-10T06:24:39.177Z,0.63
2023-01-10T06:27:05.674Z,1.73
2023-01-10T06:29:32.173Z,1.17
2023-01-10T06:31:58.657Z,1.10
2023-01-10T06:34:25.171Z,0.50
2023-01-10T06:36:51.789Z,1.40
2023-01-10T06:39:18.296Z,0.77
2023-01-10T06:41:44.741Z,1.00
2023-01-10T06:44:11.214Z,0.80
2023-01-10T06:46:37.649Z,0.77
2023-01-10T06:49:04.088Z,1.02
2023-01-10T06:51:30.592Z,0.90
2023-01-10T06:53:57.097Z,1.35
2023-01-10T06:56:23.615Z,0.75
2023-01-10T06:58:50.147Z,0.93
2023-01-10T07:01:16.737Z,0.80
2023-01-10T07:03:43.271Z,0.65
2023-01-10T07:06:09.748Z,0.93
2023-01-10T07:08:36.187Z,0.70
2023-01-10T07:11:02.619Z,1.00
2023-01-10T07:13:29.109Z,0.60
2023-01-10T07:15:55.620Z,0.70
2023-01-10T07:18:22.127Z,0.90
2023-01-10T07:20:48.589Z,0.73
2023-01-10T07:23:15.050Z,0.65
2023-01-10T07:25:41.484Z,0.65
2023-01-10T07:28:07.930Z,0.60
2023-01-10T07:30:34.378Z,0.75
2023-01-10T07:33:00.863Z,0.68
2023-01-10T07:35:27.384Z,0.93
2023-01-10T07:37:53.843Z,0.57
2023-01-10T07:40:20.386Z,0.50
2023-01-10T07:42:46.898Z,0.60
2023-01-10T07:45:13.350Z,0.70
2023-01-10T07:47:39.838Z,0.68
2023-01-10T07:50:06.314Z,0.70
2023-01-10T07:52:32.809Z,1.13
2023-01-10T07:54:59.271Z,0.80
2023-01-10T07:57:25.766Z,0.52
2023-01-10T07:59:52.769Z,0.80
2023-01-10T08:02:19.319Z,1.10
2023-01-10T08:04:45.836Z,0.75
2023-01-10T08:07:12.374Z,0.70
2023-01-10T08:09:38.819Z,0.98
2023-01-10T08:12:05.287Z,0.70
2023-01-10T08:14:31.773Z,0.70
2023-01-10T08:16:58.275Z,0.75
2023-01-10T08:19:24.779Z,0.77
2023-01-10T08:21:51.258Z,0.60
2023-01-10T08:24:17.794Z,0.85
2023-01-10T08:26:44.278Z,0.85
2023-01-10T08:29:10.761Z,0.88
2023-01-10T08:31:37.289Z,0.90
2023-01-10T08:34:03.835Z,0.88
2023-01-10T08:36:30.314Z,1.20
2023-01-10T08:38:56.793Z,1.33
2023-01-10T08:41:23.275Z,1.00
2023-01-10T08:43:49.750Z,1.02
2023-01-10T08:46:16.735Z,0.80
2023-01-10T08:48:43.366Z,0.73
2023-01-10T08:51:09.842Z,1.02
2023-01-10T08:53:36.337Z,1.10
2023-01-10T08:56:04.252Z,0.80
2023-01-10T08:58:31.946Z,1.15
2023-01-10T09:00:58.469Z,0.90
2023-01-10T09:03:24.997Z,1.02
2023-01-10T09:05:51.492Z,1.00
2023-01-10T09:08:17.962Z,1.45
2023-01-10T09:10:44.428Z,0.98
2023-01-10T09:13:10.920Z,0.98
2023-01-10T09:15:37.392Z,1.25
2023-01-10T09:18:03.867Z,1.20
2023-01-10T09:20:30.354Z,1.00
2023-01-10T09:22:56.824Z,0.88
2023-01-10T09:25:23.306Z,0.85
2023-01-10T09:27:49.742Z,0.93
2023-01-10T09:30:16.199Z,1.02
2023-01-10T09:32:42.684Z,1.10
2023-01-10T09:35:09.168Z,1.08
2023-01-10T09:37:35.669Z,1.30
2023-01-10T09:40:02.628Z,0.85
2023-01-10T09:42:29.088Z,1.00
2023-01-10T09:44:55.618Z,0.90
2023-01-10T09:47:23.275Z,0.90
2023-01-10T09:49:49.924Z,0.90
2023-01-10T09:52:16.874Z,0.90
2023-01-10T09:54:43.379Z,1.05
2023-01-10T09:57:09.839Z,1.17
2023-01-10T09:59:36.306Z,0.90
2023-01-10T10:02:02.816Z,1.20
2023-01-10T10:04:29.309Z,0.82
2023-01-10T10:06:55.770Z,0.90
2023-01-10T10:09:22.290Z,1.00
2023-01-10T10:11:48.737Z,1.30
2023-01-10T10:14:15.232Z,1.13
2023-01-10T10:16:41.833Z,0.98
2023-01-10T10:19:08.341Z,1.10
2023-01-10T10:21:34.813Z,1.10
2023-01-10T10:24:01.316Z,0.80
2023-01-10T10:26:27.800Z,1.08
2023-01-10T10:28:55.361Z,1.27
2023-01-10T10:31:21.984Z,1.08
2023-01-10T10:33:49.032Z,0.85
2023-01-10T10:36:15.547Z,1.23
2023-01-10T10:38:42.051Z,0.88
2023-01-10T10:41:08.503Z,0.90
2023-01-10T10:43:34.931Z,1.30
2023-01-10T10:46:01.430Z,1.17
2023-01-10T10:48:27.960Z,0.77
2023-01-10T10:50:54.468Z,0.90
2023-01-10T10:53:20.975Z,1.30
2023-01-10T10:55:47.596Z,1.30
2023-01-10T10:58:14.125Z,1.05
2023-01-10T11:00:40.593Z,0.77
2023-01-10T11:03:07.186Z,1.10
2023-01-10T11:05:34.125Z,1.02
2023-01-10T11:08:00.610Z,0.90
2023-01-10T11:10:27.094Z,0.90
2023-01-10T11:12:53.619Z,0.95
2023-01-10T11:15:20.115Z,1.10
2023-01-10T11:17:47.069Z,1.10
2023-01-10T11:20:13.543Z,1.10
2023-01-10T11:22:40.005Z,0.70
2023-01-10T11:25:06.529Z,1.35
2023-01-10T11:27:33.529Z,0.93
2023-01-10T11:30:00.030Z,1.30
2023-01-10T11:32:26.520Z,0.90
2023-01-10T11:34:53.015Z,0.90
2023-01-10T11:37:19.472Z,0.82
2023-01-10T11:39:45.942Z,1.00
2023-01-10T11:42:12.388Z,1.10
2023-01-10T11:44:38.902Z,0.90
2023-01-10T11:47:05.371Z,0.80
2023-01-10T11:49:31.851Z,0.80
2023-01-10T11:52:01.135Z,0.85
2023-01-10T11:54:27.583Z,0.70
2023-01-10T11:56:54.148Z,1.00
2023-01-10T11:59:20.627Z,0.90
2023-01-10T12:01:47.068Z,0.88
2023-01-10T12:04:13.499Z,0.88
2023-01-10T12:06:39.980Z,0.90
2023-01-10T12:09:06.423Z,0.80
2023-01-10T12:11:32.925Z,0.90
2023-01-10T12:13:59.433Z,1.13
2023-01-10T12:16:25.999Z,0.73
2023-01-10T12:18:52.524Z,0.85
2023-01-10T12:21:19.456Z,1.00
2023-01-10T12:23:45.944Z,1.08
2023-01-10T12:26:12.494Z,1.17
2023-01-10T12:28:38.967Z,0.52
2023-01-10T12:31:06.007Z,1.00
2023-01-10T12:33:32.471Z,1.03
2023-01-10T12:35:58.929Z,0.98
2023-01-10T12:38:25.420Z,0.88
2023-01-10T12:40:51.886Z,0.80
2023-01-10T12:43:18.316Z,0.80
2023-01-10T12:45:44.849Z,0.90
2023-01-10T12:48:11.317Z,1.17
2023-01-10T12:50:37.750Z,0.95
2023-01-10T12:53:04.199Z,0.60
2023-01-10T12:55:30.640Z,1.00
2023-01-10T12:57:57.131Z,1.10
2023-01-10T13:00:23.595Z,0.68
2023-01-10T13:05:21.543Z,0.93
2023-01-10T13:07:48.031Z,1.13
2023-01-10T13:10:14.520Z,0.98
2023-01-10T13:12:41.135Z,0.90
2023-01-10T13:15:07.562Z,0.80
2023-01-10T13:17:34.092Z,1.20
2023-01-10T13:20:00.645Z,1.30
2023-01-10T13:22:27.157Z,1.13
2023-01-10T13:24:54.149Z,1.15
2023-01-10T13:27:20.648Z,0.90
2023-01-10T13:29:47.165Z,1.15
2023-01-10T13:32:13.632Z,0.90
2023-01-10T13:34:40.195Z,0.90
2023-01-10T13:37:06.655Z,0.93
2023-01-10T13:39:33.099Z,1.05
2023-01-10T13:41:59.607Z,1.20
2023-01-10T13:44:26.041Z,1.20
2023-01-10T13:46:52.533Z,1.60
2023-01-10T13:49:19.047Z,0.90
2023-01-10T13:51:45.604Z,1.35
2023-01-10T13:54:12.074Z,1.08
2023-01-10T13:56:38.579Z,0.95
2023-01-10T13:59:05.052Z,0.93
2023-01-10T14:01:31.693Z,1.13
2023-01-10T14:03:58.228Z,1.00
2023-01-10T14:06:24.667Z,1.02
2023-01-10T14:08:51.138Z,1.08
2023-01-10T14:11:17.566Z,1.20
2023-01-10T14:13:44.105Z,0.90
2023-01-10T14:16:10.614Z,1.00
2023-01-10T14:18:37.051Z,1.40
2023-01-10T14:21:03.540Z,1.02
2023-01-10T14:23:30.480Z,1.20
2023-01-10T14:25:56.979Z,0.98
2023-01-10T14:28:23.459Z,1.33
2023-01-10T14:30:49.950Z,1.25
2023-01-10T14:33:16.407Z,0.80
2023-01-10T14:35:42.923Z,1.27
2023-01-10T14:38:09.409Z,0.88
2023-01-10T14:40:35.937Z,1.10
2023-01-10T14:43:02.423Z,0.80
2023-01-10T14:45:28.857Z,1.00
2023-01-10T14:47:55.805Z,1.13
2023-01-10T14:50:22.289Z,1.08
2023-01-10T14:52:48.745Z,0.85
2023-01-10T14:55:15.203Z,1.35
2023-01-10T14:57:41.750Z,0.90
2023-01-10T15:00:08.189Z,0.88
2023-01-10T15:02:36.448Z,0.88
2023-01-10T15:05:03.054Z,0.70
2023-01-10T15:07:29.515Z,1.27
2023-01-10T15:09:55.964Z,1.17
2023-01-10T15:12:22.445Z,0.68
2023-01-10T15:14:48.937Z,1.10
2023-01-10T15:17:15.345Z,0.82
2023-01-10T15:19:41.810Z,0.75
2023-01-10T15:22:08.766Z,0.90
2023-01-10T15:24:35.752Z,1.10
2023-01-10T15:27:02.246Z,0.95
2023-01-10T15:29:28.758Z,1.10
2023-01-10T15:31:55.245Z,1.13
2023-01-10T15:34:21.704Z,0.90
2023-01-10T15:36:48.206Z,0.95
2023-01-10T15:39:14.649Z,1.13
2023-01-10T15:41:41.605Z,0.82
2023-01-10T15:44:08.110Z,0.70
2023-01-10T15:46:34.640Z,1.00
2023-01-10T15:49:01.139Z,0.85
2023-01-10T15:51:27.633Z,1.10
2023-01-10T15:53:54.158Z,1.00
2023-01-10T15:56:20.618Z,1.20
2023-01-10T15:58:47.159Z,0.90
2023-01-10T16:01:13.838Z,1.00
2023-01-10T16:03:40.479Z,1.02
2023-01-10T16:06:06.988Z,1.00
2023-01-10T16:08:33.478Z,1.27
2023-01-10T16:10:59.968Z,1.10
2023-01-10T16:13:27.515Z,1.35
2023-01-10T16:15:54.230Z,0.77
2023-01-10T16:18:20.762Z,1.00
2023-01-10T16:20:47.294Z,0.80
2023-01-10T16:23:13.781Z,1.00
2023-01-10T16:25:40.269Z,1.02
2023-01-10T16:28:06.709Z,1.20
2023-01-10T16:30:33.192Z,1.20
2023-01-10T16:32:59.642Z,0.98
2023-01-10T16:35:26.095Z,1.20
2023-01-10T16:37:52.581Z,1.20
2023-01-10T16:40:19.017Z,0.93
2023-01-10T16:42:45.550Z,1.00
2023-01-10T16:45:12.004Z,1.13
2023-01-10T16:47:38.488Z,1.20
2023-01-10T16:50:04.926Z,1.10
2023-01-10T16:52:31.413Z,1.00
2023-01-10T16:54:57.857Z,1.25
2023-01-10T16:57:24.353Z,1.10
2023-01-10T16:59:51.335Z,1.40
2023-01-10T17:02:17.835Z,1.20
2023-01-10T17:04:44.268Z,1.50
2023-01-10T17:07:10.751Z,1.10
2023-01-10T17:09:37.270Z,1.10
2023-01-10T17:12:03.755Z,1.40
2023-01-10T17:14:30.774Z,1.05
2023-01-10T17:16:57.274Z,1.33
2023-01-10T17:19:24.405Z,1.65
2023-01-10T17:21:50.928Z,1.47
2023-01-10T17:24:17.434Z,1.35
2023-01-10T17:26:43.874Z,1.90
2023-01-10T17:29:10.355Z,1.67
2023-01-10T17:31:36.867Z,1.65
2023-01-10T17:34:03.334Z,1.15
2023-01-10T17:36:30.350Z,1.58
2023-01-10T17:38:56.843Z,1.60
2023-01-10T17:41:23.309Z,2.00
2023-01-10T17:43:49.828Z,1.20
2023-01-10T17:46:16.814Z,1.90
2023-01-10T17:48:43.299Z,2.13
2023-01-10T17:51:09.743Z,1.52
2023-01-10T17:53:36.228Z,2.08
2023-01-10T17:56:02.732Z,1.83
2023-01-10T17:58:29.184Z,1.95
2023-01-10T18:00:56.267Z,1.70
2023-01-10T18:03:23.315Z,1.77
2023-01-10T18:05:49.755Z,1.98
2023-01-10T18:08:16.221Z,2.10
2023-01-10T18:10:42.700Z,1.85
2023-01-10T18:13:09.157Z,2.85
2023-01-10T18:15:36.127Z,1.85
2023-01-10T18:18:02.617Z,1.90
2023-01-10T18:20:29.093Z,1.73
2023-01-10T18:22:56.088Z,1.80
2023-01-10T18:25:22.570Z,1.60
2023-01-10T18:27:49.075Z,2.13
2023-01-10T18:30:16.232Z,1.80
2023-01-10T18:32:42.737Z,2.38
2023-01-10T18:35:09.713Z,1.95
2023-01-10T18:37:36.763Z,2.07
2023-01-10T18:40:03.240Z,2.00
2023-01-10T18:42:29.696Z,2.10
2023-01-10T18:44:56.174Z,1.80
2023-01-10T18:47:23.116Z,2.03
2023-01-10T18:49:49.578Z,2.40
2023-01-10T18:52:16.012Z,1.65
2023-01-10T18:54:42.932Z,2.30
2023-01-10T18:57:09.405Z,2.40
2023-01-10T18:59:35.910Z,2.20
2023-01-10T19:02:02.407Z,2.00
2023-01-10T19:04:28.845Z,1.70
2023-01-10T19:06:56.833Z,2.00
2023-01-10T19:09:23.450Z,2.10
2023-01-10T19:11:49.940Z,2.20
2023-01-10T19:14:16.418Z,2.03
2023-01-10T19:16:42.916Z,2.15
2023-01-10T19:19:09.537Z,2.22
2023-01-10T19:21:36.545Z,2.20
2023-01-10T19:24:03.024Z,2.67
2023-01-10T19:26:29.495Z,2.00
2023-01-10T19:28:56.477Z,2.35
2023-01-10T19:31:22.958Z,2.70
2023-01-10T19:33:49.444Z,2.28
2023-01-10T19:36:15.914Z,2.40
2023-01-10T19:38:42.410Z,2.10
2023-01-10T19:41:08.867Z,2.55
2023-01-10T19:43:35.294Z,2.75
2023-01-10T19:46:01.772Z,2.35
2023-01-10T19:48:28.241Z,3.03
2023-01-10T19:50:54.679Z,2.53
2023-01-10T19:53:21.597Z,2.88
2023-01-10T19:55:48.106Z,2.53
2023-01-10T19:58:14.545Z,2.60
2023-01-10T20:00:41.007Z,3.20
2023-01-10T20:03:07.978Z,2.88
2023-01-10T20:05:34.573Z,2.67
2023-01-10T20:08:01.137Z,2.50
2023-01-10T20:10:27.645Z,2.40
2023-01-10T20:12:54.142Z,2.70
2023-01-10T20:15:20.661Z,2.33
2023-01-10T20:17:47.219Z,2.88
2023-01-10T20:20:13.711Z,2.50
2023-01-10T20:22:40.223Z,2.03
2023-01-10T20:25:07.157Z,2.42
2023-01-10T20:27:33.589Z,2.63
2023-01-10T20:30:00.026Z,2.40
2023-01-10T20:32:26.486Z,2.50
2023-01-10T20:34:53.415Z,2.72
2023-01-10T20:37:20.329Z,3.00
2023-01-10T20:39:46.811Z,2.55
2023-01-10T20:42:13.752Z,2.10
2023-01-10T20:44:40.261Z,2.72
2023-01-10T20:47:06.769Z,2.30
2023-01-10T20:49:33.762Z,2.75
2023-01-10T20:52:00.247Z,2.20
2023-01-10T20:54:26.824Z,2.20
2023-01-10T20:56:53.273Z,2.08
2023-01-10T20:59:19.726Z,2.38
2023-01-10T21:01:46.801Z,2.20
2023-01-10T21:04:13.820Z,2.23
2023-01-10T21:06:40.296Z,2.00
2023-01-10T21:09:06.847Z,2.40
2023-01-10T21:11:44.433Z,2.05
2023-01-10T21:14:18.998Z,1.80
2023-01-10T21:16:45.496Z,2.50
2023-01-10T21:19:11.958Z,1.75
2023-01-10T21:21:38.420Z,2.22
2023-01-10T21:24:05.358Z,2.00
2023-01-10T21:26:31.819Z,2.38
2023-01-10T21:28:58.294Z,1.77
2023-01-10T21:31:24.771Z,2.00
2023-01-10T21:33:51.775Z,2.00
2023-01-10T21:36:18.264Z,1.97
2023-01-10T21:38:44.776Z,1.80
2023-01-10T21:41:11.253Z,2.03
2023-01-10T21:43:38.240Z,1.85
2023-01-10T21:46:04.686Z,2.53
2023-01-10T21:48:31.124Z,1.83
2023-01-10T21:50:57.587Z,1.83
2023-01-10T21:53:24.575Z,2.08
2023-01-10T21:55:51.009Z,1.43
2023-01-10T21:58:17.507Z,1.73
2023-01-10T22:00:44.641Z,1.60
2023-01-10T22:03:11.156Z,1.73
2023-01-10T22:05:37.617Z,1.23
2023-01-10T22:08:04.055Z,1.63
2023-01-10T22:10:30.546Z,1.65
2023-01-10T22:12:57.021Z,2.22
2023-01-10T22:15:23.446Z,1.30
2023-01-10T22:17:49.947Z,1.30
2023-01-10T22:20:16.443Z,1.38
2023-01-10T22:22:42.921Z,1.58
2023-01-10T22:25:09.408Z,1.23
2023-01-10T22:27:35.873Z,2.60
2023-01-10T22:30:02.390Z,1.20
2023-01-10T22:32:29.336Z,1.10
2023-01-10T22:34:55.857Z,1.20
2023-01-10T22:37:22.364Z,1.60
2023-01-10T22:39:49.356Z,1.50
2023-01-10T22:42:15.797Z,1.23
2023-01-10T22:44:42.767Z,1.40
2023-01-10T22:47:09.188Z,1.08
2023-01-10T22:49:35.702Z,1.50
2023-01-10T22:52:02.171Z,0.95
2023-01-10T22:54:28.688Z,1.38
2023-01-10T22:56:55.156Z,1.60
2023-01-10T22:59:21.656Z,1.73
2023-01-10T23:01:48.609Z,1.70
2023-01-10T23:04:15.100Z,1.38
2023-01-10T23:06:41.654Z,1.55
2023-01-10T23:09:08.210Z,1.30
2023-01-10T23:11:34.693Z,1.40
2023-01-10T23:14:01.128Z,1.35
2023-01-10T23:16:28.226Z,1.60
2023-01-10T23:18:54.877Z,1.00
2023-01-10T23:21:21.349Z,1.13
2023-01-10T23:23:48.327Z,1.17
2023-01-10T23:26:14.827Z,1.10
2023-01-10T23:28:41.314Z,1.00
2023-01-10T23:31:07.801Z,0.93
2023-01-10T23:33:34.790Z,1.17
2023-01-10T23:36:01.245Z,1.10
2023-01-10T23:38:27.772Z,1.30
2023-01-10T23:40:54.249Z,1.35
2023-01-10T23:43:21.244Z,1.10
2023-01-10T23:45:48.256Z,1.20
2023-01-10T23:48:15.302Z,1.03
2023-01-10T23:50:41.780Z,1.70
2023-01-10T23:53:08.266Z,0.93
2023-01-10T23:55:34.701Z,0.80
2023-01-10T23:58:01.642Z,1.25
